createdAt,value
2023-05-11T00:00:15.268Z,99.99
2023-05-11T00:01:15.138Z,99.99
2023-05-11T00:02:15.165Z,99.99
2023-05-11T00:03:15.362Z,99.99
2023-05-11T00:04:15.185Z,99.99
2023-05-11T00:05:15.117Z,99.99
2023-05-11T00:06:15.106Z,99.99
2023-05-11T00:07:15.076Z,99.99
2023-05-11T00:08:16.888Z,99.99
2023-05-11T00:09:16.093Z,99.99
2023-05-11T00:10:15.141Z,99.99
2023-05-11T00:11:16.005Z,99.99
2023-05-11T00:12:15.033Z,99.99
2023-05-11T00:13:14.992Z,99.99
2023-05-11T00:14:14.995Z,99.99
2023-05-11T00:15:14.982Z,99.99
2023-05-11T00:16:15.069Z,99.99
2023-05-11T00:17:14.952Z,99.99
2023-05-11T00:18:14.945Z,99.99
2023-05-11T00:19:14.933Z,99.99
2023-05-11T00:20:15.039Z,99.99
2023-05-11T00:21:14.892Z,99.99
2023-05-11T00:22:14.888Z,99.99
2023-05-11T00:23:14.873Z,99.99
2023-05-11T00:24:14.913Z,99.99
2023-05-11T00:25:14.868Z,99.99
2023-05-11T00:26:14.841Z,99.99
2023-05-11T00:27:14.807Z,99.99
2023-05-11T00:28:14.845Z,99.99
2023-05-11T00:29:14.841Z,99.99
2023-05-11T00:30:14.782Z,99.99
2023-05-11T00:31:14.845Z,99.99
2023-05-11T00:32:14.767Z,99.99
2023-05-11T00:33:14.762Z,99.99
2023-05-11T00:34:14.771Z,99.99
2023-05-11T00:35:14.786Z,99.99
2023-05-11T00:36:14.753Z,99.99
2023-05-11T00:37:14.736Z,99.99
2023-05-11T00:38:15.466Z,99.99
2023-05-11T00:39:14.688Z,99.99
2023-05-11T00:40:14.724Z,99.99
2023-05-11T00:41:14.788Z,99.99
2023-05-11T00:42:14.643Z,99.99
2023-05-11T00:43:14.641Z,99.99
2023-05-11T00:44:14.639Z,99.99
2023-05-11T00:45:14.602Z,99.99
2023-05-11T00:46:14.657Z,99.99
2023-05-11T00:47:14.817Z,99.99
2023-05-11T00:48:14.579Z,99.99
2023-05-11T00:49:14.569Z,99.99
2023-05-11T00:50:14.636Z,99.99
2023-05-11T00:51:14.560Z,99.99
2023-05-11T00:52:14.547Z,99.99
2023-05-11T00:53:14.519Z,99.99
2023-05-11T00:54:14.523Z,99.99
2023-05-11T00:55:14.494Z,99.99
2023-05-11T00:56:14.597Z,99.99
2023-05-11T00:57:14.486Z,99.99
2023-05-11T00:58:14.461Z,99.99
2023-05-11T00:59:14.446Z,99.99
2023-05-11T01:00:14.469Z,99.99
2023-05-11T01:01:14.491Z,99.99
2023-05-11T01:02:14.437Z,99.99
2023-05-11T01:03:14.456Z,99.99
2023-05-11T01:04:14.435Z,99.99
2023-05-11T01:05:14.396Z,99.99
2023-05-11T01:06:14.353Z,99.99
2023-05-11T01:07:14.382Z,99.99
2023-05-11T01:08:14.331Z,99.99
2023-05-11T01:09:14.322Z,99.99
2023-05-11T01:10:14.591Z,99.99
2023-05-11T01:11:15.340Z,99.99
2023-05-11T01:12:14.341Z,99.99
2023-05-11T01:13:14.289Z,99.99
2023-05-11T01:14:14.289Z,99.99
2023-05-11T01:15:14.269Z,99.99
2023-05-11T01:16:14.298Z,99.99
2023-05-11T01:17:14.255Z,99.99
2023-05-11T01:18:14.223Z,99.99
2023-05-11T01:19:14.212Z,99.99
2023-05-11T01:20:14.217Z,99.99
2023-05-11T01:21:14.184Z,99.99
2023-05-11T01:22:14.181Z,99.99
2023-05-11T01:23:14.206Z,99.99
2023-05-11T01:24:14.155Z,99.99
2023-05-11T01:25:14.167Z,99.99
2023-05-11T01:26:14.136Z,99.99
2023-05-11T01:27:14.120Z,99.99
2023-05-11T01:28:14.141Z,99.99
2023-05-11T01:29:14.108Z,99.99
2023-05-11T01:30:14.078Z,99.99
2023-05-11T01:31:14.067Z,99.99
2023-05-11T01:32:14.089Z,99.99
2023-05-11T01:33:14.132Z,99.99
2023-05-11T01:34:14.042Z,99.99
2023-05-11T01:35:14.030Z,99.99
2023-05-11T01:36:14.020Z,99.99
2023-05-11T01:37:14.006Z,99.99
2023-05-11T01:38:14.043Z,99.99
2023-05-11T01:39:13.967Z,99.99
2023-05-11T01:40:13.948Z,99.99
2023-05-11T01:41:13.949Z,99.99
2023-05-11T01:42:13.937Z,99.99
2023-05-11T01:43:13.963Z,99.99
2023-05-11T01:44:14.925Z,99.99
2023-05-11T01:45:13.911Z,99.99
2023-05-11T01:46:13.919Z,99.99
2023-05-11T01:47:13.914Z,99.99
2023-05-11T01:48:13.889Z,99.99
2023-05-11T01:49:13.943Z,99.99
2023-05-11T01:50:13.824Z,99.99
2023-05-11T01:51:13.830Z,99.99
2023-05-11T01:52:13.813Z,99.99
2023-05-11T01:53:13.785Z,99.99
2023-05-11T01:54:13.855Z,99.99
2023-05-11T01:55:13.787Z,99.99
2023-05-11T01:56:13.765Z,99.99
2023-05-11T01:57:13.806Z,99.99
2023-05-11T01:58:13.731Z,99.99
2023-05-11T01:59:14.128Z,99.99
2023-05-11T02:00:13.781Z,99.99
2023-05-11T02:01:13.712Z,99.99
2023-05-11T02:02:13.702Z,99.99
2023-05-11T02:03:13.744Z,99.99
2023-05-11T02:04:13.688Z,99.99
2023-05-11T02:05:13.728Z,99.99
2023-05-11T02:06:13.640Z,99.99
2023-05-11T02:07:13.659Z,99.99
2023-05-11T02:08:13.946Z,99.99
2023-05-11T02:09:13.633Z,99.99
2023-05-11T02:10:13.634Z,99.99
2023-05-11T02:11:13.601Z,99.99
2023-05-11T02:12:13.587Z,99.99
2023-05-11T02:13:13.578Z,99.99
2023-05-11T02:14:13.602Z,99.99
2023-05-11T02:15:13.547Z,99.99
2023-05-11T02:16:13.589Z,99.99
2023-05-11T02:17:13.691Z,99.99
2023-05-11T02:18:13.503Z,99.99
2023-05-11T02:19:13.503Z,99.99
2023-05-11T02:20:13.494Z,99.99
2023-05-11T02:21:13.519Z,99.99
2023-05-11T02:22:13.468Z,99.99
2023-05-11T02:23:13.462Z,99.99
2023-05-11T02:24:13.438Z,99.99
2023-05-11T02:25:14.430Z,99.99
2023-05-11T02:26:13.432Z,99.99
2023-05-11T02:27:13.452Z,99.99
2023-05-11T02:28:13.376Z,99.99
2023-05-11T02:29:13.378Z,99.99
2023-05-11T02:30:13.380Z,99.99
2023-05-11T02:31:13.392Z,99.99
2023-05-11T02:32:13.387Z,99.99
2023-05-11T02:33:13.328Z,99.99
2023-05-11T02:34:13.341Z,99.99
2023-05-11T02:35:13.323Z,99.99
2023-05-11T02:36:13.304Z,99.99
2023-05-11T02:37:13.389Z,99.99
2023-05-11T02:38:13.283Z,99.99
2023-05-11T02:39:13.270Z,99.99
2023-05-11T02:40:13.255Z,99.99
2023-05-11T02:41:13.248Z,99.99
2023-05-11T02:42:13.217Z,99.99
2023-05-11T02:43:13.244Z,99.99
2023-05-11T02:44:13.212Z,99.99
2023-05-11T02:45:13.200Z,99.99
2023-05-11T02:46:13.215Z,99.99
2023-05-11T02:47:13.195Z,99.99
2023-05-11T02:48:13.588Z,99.99
2023-05-11T02:49:13.152Z,99.99
2023-05-11T02:50:13.113Z,99.99
2023-05-11T02:51:13.150Z,99.99
2023-05-11T02:52:13.102Z,99.99
2023-05-11T02:53:13.119Z,99.99
2023-05-11T02:54:13.843Z,99.99
2023-05-11T02:55:13.065Z,99.99
2023-05-11T02:56:13.051Z,99.99
2023-05-11T02:57:13.065Z,99.99
2023-05-11T02:58:13.183Z,99.99
2023-05-11T02:59:13.019Z,99.99
2023-05-11T03:00:13.044Z,99.99
2023-05-11T03:01:13.222Z,99.99
2023-05-11T03:02:13.151Z,99.99
2023-05-11T03:03:13.779Z,99.99
2023-05-11T03:04:12.976Z,99.99
2023-05-11T03:05:13.002Z,99.99
2023-05-11T03:06:12.953Z,99.99
2023-05-11T03:07:12.939Z,99.99
2023-05-11T03:08:12.921Z,99.99
2023-05-11T03:09:12.936Z,99.99
2023-05-11T03:10:12.911Z,99.99
2023-05-11T03:11:12.894Z,99.99
2023-05-11T03:12:13.890Z,99.99
2023-05-11T03:13:12.861Z,99.99
2023-05-11T03:14:12.926Z,99.99
2023-05-11T03:15:12.872Z,99.99
2023-05-11T03:16:12.902Z,99.99
2023-05-11T03:17:12.880Z,99.99
2023-05-11T03:18:12.824Z,99.99
2023-05-11T03:19:12.829Z,99.99
2023-05-11T03:20:12.798Z,99.99
2023-05-11T03:21:12.765Z,99.99
2023-05-11T03:22:12.780Z,99.99
2023-05-11T03:23:12.782Z,99.99
2023-05-11T03:24:12.737Z,99.99
2023-05-11T03:25:12.745Z,99.99
2023-05-11T03:26:12.741Z,99.99
2023-05-11T03:27:12.712Z,99.99
2023-05-11T03:28:12.706Z,99.99
2023-05-11T03:29:12.681Z,99.99
2023-05-11T03:30:12.741Z,99.99
2023-05-11T03:31:12.688Z,99.99
2023-05-11T03:32:12.701Z,99.99
2023-05-11T03:33:12.743Z,99.99
2023-05-11T03:34:12.619Z,99.99
2023-05-11T03:35:12.656Z,99.99
2023-05-11T03:36:12.663Z,99.99
2023-05-11T03:37:12.594Z,99.99
2023-05-11T03:38:12.581Z,99.99
2023-05-11T03:39:12.569Z,99.99
2023-05-11T03:40:12.545Z,99.99
2023-05-11T03:41:12.596Z,99.99
2023-05-11T03:42:12.550Z,99.99
2023-05-11T03:43:12.508Z,99.99
2023-05-11T03:44:12.639Z,99.99
2023-05-11T03:45:12.507Z,99.99
2023-05-11T03:46:12.576Z,99.99
2023-05-11T03:47:12.463Z,99.99
2023-05-11T03:48:12.470Z,99.99
2023-05-11T03:49:13.814Z,99.99
2023-05-11T03:50:13.439Z,99.99
2023-05-11T03:51:12.421Z,99.99
2023-05-11T03:52:12.432Z,99.99
2023-05-11T03:53:12.398Z,99.99
2023-05-11T03:54:12.376Z,99.99
2023-05-11T03:55:12.375Z,99.99
2023-05-11T03:56:12.374Z,99.99
2023-05-11T03:57:12.383Z,99.99
2023-05-11T03:58:12.381Z,99.99
2023-05-11T03:59:12.333Z,99.99
2023-05-11T04:00:12.341Z,99.99
2023-05-11T04:01:12.320Z,99.99
2023-05-11T04:02:12.498Z,99.99
2023-05-11T04:03:12.431Z,99.99
2023-05-11T04:04:12.358Z,99.99
2023-05-11T04:05:12.271Z,99.99
2023-05-11T04:06:12.401Z,99.99
2023-05-11T04:07:12.262Z,99.99
2023-05-11T04:08:12.225Z,99.99
2023-05-11T04:09:12.191Z,99.99
2023-05-11T04:10:12.185Z,99.99
2023-05-11T04:11:12.210Z,99.99
2023-05-11T04:12:12.190Z,99.99
2023-05-11T04:13:12.190Z,99.99
2023-05-11T04:14:12.157Z,99.99
2023-05-11T04:15:12.210Z,99.99
2023-05-11T04:16:12.160Z,99.99
2023-05-11T04:17:12.138Z,99.99
2023-05-11T04:18:12.143Z,99.99
2023-05-11T04:19:12.108Z,99.99
2023-05-11T04:20:12.087Z,99.99
2023-05-11T04:21:12.072Z,99.99
2023-05-11T04:22:12.072Z,99.99
2023-05-11T04:23:12.057Z,99.99
2023-05-11T04:24:12.025Z,99.99
2023-05-11T04:25:12.013Z,99.99
2023-05-11T04:26:12.038Z,99.99
2023-05-11T04:27:12.004Z,99.99
2023-05-11T04:28:11.998Z,99.99
2023-05-11T04:29:12.011Z,99.99
2023-05-11T04:30:11.967Z,99.99
2023-05-11T04:31:11.990Z,99.99
2023-05-11T04:32:11.950Z,99.99
2023-05-11T04:33:11.912Z,99.99
2023-05-11T04:34:12.985Z,99.99
2023-05-11T04:35:11.885Z,99.99
2023-05-11T04:36:11.891Z,99.99
2023-05-11T04:37:11.886Z,99.99
2023-05-11T04:38:11.894Z,99.99
2023-05-11T04:39:11.902Z,99.99
2023-05-11T04:40:11.891Z,99.99
2023-05-11T04:41:11.858Z,99.99
2023-05-11T04:42:11.837Z,99.99
2023-05-11T04:43:11.838Z,99.99
2023-05-11T04:44:11.817Z,99.99
2023-05-11T04:45:11.804Z,99.99
2023-05-11T04:46:11.785Z,99.99
2023-05-11T04:47:11.748Z,99.99
2023-05-11T04:48:11.759Z,99.99
2023-05-11T04:49:11.773Z,99.99
2023-05-11T04:50:11.726Z,99.99
2023-05-11T04:51:11.716Z,99.99
2023-05-11T04:52:11.707Z,99.99
2023-05-11T04:53:11.931Z,99.99
2023-05-11T04:54:11.835Z,99.99
2023-05-11T04:55:11.685Z,99.99
2023-05-11T04:56:11.644Z,99.99
2023-05-11T04:57:11.650Z,99.99
2023-05-11T04:58:11.668Z,99.99
2023-05-11T04:59:11.660Z,99.99
2023-05-11T05:00:11.658Z,99.99
2023-05-11T05:01:11.643Z,99.99
2023-05-11T05:02:11.757Z,99.99
2023-05-11T05:03:11.585Z,99.99
2023-05-11T05:04:11.742Z,99.99
2023-05-11T05:05:11.567Z,99.99
2023-05-11T05:06:11.549Z,99.99
2023-05-11T05:07:11.540Z,99.99
2023-05-11T05:08:11.507Z,99.99
2023-05-11T05:09:11.523Z,99.99
2023-05-11T05:10:11.539Z,99.99
2023-05-11T05:11:11.486Z,99.99
2023-05-11T05:12:11.528Z,99.99
2023-05-11T05:13:11.473Z,99.99
2023-05-11T05:14:11.480Z,99.99
2023-05-11T05:15:11.468Z,99.99
2023-05-11T05:16:11.451Z,99.99
2023-05-11T05:17:11.467Z,99.99
2023-05-11T05:18:11.446Z,99.99
2023-05-11T05:19:11.408Z,99.99
2023-05-11T05:20:11.553Z,99.99
2023-05-11T05:21:11.369Z,99.99
2023-05-11T05:22:11.534Z,99.99
2023-05-11T05:23:11.374Z,99.99
2023-05-11T05:24:11.385Z,99.99
2023-05-11T05:25:11.356Z,99.99
2023-05-11T05:26:11.319Z,99.99
2023-05-11T05:27:11.321Z,99.99
2023-05-11T05:28:11.287Z,99.99
2023-05-11T05:29:11.298Z,99.99
2023-05-11T05:30:11.276Z,99.99
2023-05-11T05:31:11.340Z,99.99
2023-05-11T05:32:11.244Z,99.99
2023-05-11T05:33:11.264Z,99.99
2023-05-11T05:34:11.817Z,99.99
2023-05-11T05:35:11.229Z,99.99
2023-05-11T05:36:11.194Z,99.99
2023-05-11T05:37:11.190Z,99.99
2023-05-11T05:38:11.183Z,99.99
2023-05-11T05:39:11.186Z,99.99
2023-05-11T05:40:11.166Z,99.99
2023-05-11T05:41:11.130Z,99.99
2023-05-11T05:42:11.116Z,99.99
2023-05-11T05:43:11.149Z,99.99
2023-05-11T05:44:11.115Z,99.99
2023-05-11T05:45:14.550Z,99.99
2023-05-11T05:46:12.122Z,99.99
2023-05-11T05:47:11.056Z,99.99
2023-05-11T05:48:11.630Z,99.99
2023-05-11T05:49:11.070Z,99.99
2023-05-11T05:50:11.105Z,99.99
2023-05-11T05:51:11.059Z,99.99
2023-05-11T05:52:11.061Z,99.91
2023-05-11T05:53:11.070Z,99.04
2023-05-11T05:54:11.052Z,98.58
2023-05-11T05:55:11.067Z,98.54
2023-05-11T05:56:11.005Z,99.04
2023-05-11T05:57:12.754Z,98.69
2023-05-11T05:58:10.988Z,98.49
2023-05-11T05:59:11.011Z,98.54
2023-05-11T06:00:10.972Z,97.98
2023-05-11T06:01:11.050Z,98.18
2023-05-11T06:02:10.972Z,98.02
2023-05-11T06:03:11.055Z,97.47
2023-05-11T06:04:10.970Z,96.96
2023-05-11T06:05:11.061Z,97.67
2023-05-11T06:06:10.902Z,97.47
2023-05-11T06:07:10.914Z,98.43
2023-05-11T06:08:11.494Z,97.82
2023-05-11T06:09:10.830Z,98.27
2023-05-11T06:10:11.055Z,98.54
2023-05-11T06:11:10.831Z,98.43
2023-05-11T06:12:10.849Z,97.82
2023-05-11T06:13:10.769Z,98.07
2023-05-11T06:14:10.831Z,98.27
2023-05-11T06:15:11.031Z,99.09
2023-05-11T06:16:10.827Z,99.95
2023-05-11T06:17:10.820Z,99.99
2023-05-11T06:18:10.816Z,99.99
2023-05-11T06:19:11.283Z,99.99
2023-05-11T06:20:11.186Z,99.99
2023-05-11T06:21:11.082Z,99.99
2023-05-11T06:22:10.755Z,99.99
2023-05-11T06:23:10.850Z,99.99
2023-05-11T06:24:10.682Z,99.99
2023-05-11T06:25:10.694Z,99.99
2023-05-11T06:26:10.654Z,99.99
2023-05-11T06:27:10.693Z,99.99
2023-05-11T06:28:10.645Z,99.99
2023-05-11T06:29:10.653Z,99.99
2023-05-11T06:30:10.631Z,99.99
2023-05-11T06:31:10.674Z,99.99
2023-05-11T06:32:10.586Z,99.99
2023-05-11T06:33:14.167Z,99.99
2023-05-11T06:34:10.578Z,99.99
2023-05-11T06:35:10.622Z,99.99
2023-05-11T06:36:10.533Z,99.99
2023-05-11T06:37:10.605Z,99.99
2023-05-11T06:38:10.695Z,99.99
2023-05-11T06:39:10.544Z,99.99
2023-05-11T06:40:10.550Z,99.99
2023-05-11T06:41:10.611Z,99.99
2023-05-11T06:42:10.483Z,99.99
2023-05-11T06:43:10.471Z,99.99
2023-05-11T06:44:10.471Z,99.99
2023-05-11T06:45:10.518Z,99.99
2023-05-11T06:46:10.463Z,99.99
2023-05-11T06:47:10.466Z,99.99
2023-05-11T06:48:10.493Z,99.99
2023-05-11T06:49:10.434Z,99.99
2023-05-11T06:50:10.382Z,99.99
2023-05-11T06:51:10.409Z,99.99
2023-05-11T06:52:11.118Z,99.99
2023-05-11T06:53:10.366Z,99.99
2023-05-11T06:54:10.494Z,99.99
2023-05-11T06:55:10.333Z,99.99
2023-05-11T06:56:10.318Z,99.99
2023-05-11T06:57:11.383Z,99.99
2023-05-11T06:58:10.330Z,99.99
2023-05-11T06:59:10.304Z,99.99
2023-05-11T07:00:10.327Z,99.99
2023-05-11T07:01:10.282Z,99.99
2023-05-11T07:02:10.282Z,99.99
2023-05-11T07:03:10.311Z,99.99
2023-05-11T07:04:10.308Z,99.99
2023-05-11T07:05:10.248Z,99.99
2023-05-11T07:06:10.199Z,99.99
2023-05-11T07:07:10.208Z,99.99
2023-05-11T07:08:10.186Z,99.99
2023-05-11T07:09:10.189Z,99.99
2023-05-11T07:10:10.206Z,99.99
2023-05-11T07:11:10.192Z,99.99
2023-05-11T07:12:10.145Z,99.99
2023-05-11T07:13:10.117Z,99.99
2023-05-11T07:14:10.147Z,99.99
2023-05-11T07:15:10.156Z,99.99
2023-05-11T07:16:10.098Z,99.99
2023-05-11T07:17:10.246Z,99.99
2023-05-11T07:18:10.144Z,99.99
2023-05-11T07:19:10.127Z,99.99
2023-05-11T07:20:10.136Z,99.99
2023-05-11T07:21:10.104Z,99.99
2023-05-11T07:22:10.047Z,99.99
2023-05-11T07:23:10.013Z,99.99
2023-05-11T07:24:10.014Z,99.99
2023-05-11T07:25:10.051Z,99.99
2023-05-11T07:26:10.057Z,99.99
2023-05-11T07:27:09.986Z,99.99
2023-05-11T07:28:09.981Z,99.99
2023-05-11T07:29:09.974Z,99.99
2023-05-11T07:30:09.954Z,99.99
2023-05-11T07:31:10.073Z,99.99
2023-05-11T07:32:09.955Z,99.99
2023-05-11T07:33:09.966Z,99.99
2023-05-11T07:34:09.898Z,99.99
2023-05-11T07:35:09.905Z,99.99
2023-05-11T07:36:09.894Z,99.99
2023-05-11T07:37:09.874Z,99.99
2023-05-11T07:38:09.879Z,99.99
2023-05-11T07:39:09.850Z,99.99
2023-05-11T07:40:09.842Z,99.99
2023-05-11T07:41:12.293Z,99.99
2023-05-11T07:42:09.886Z,99.99
2023-05-11T07:43:09.801Z,99.99
2023-05-11T07:44:09.844Z,99.99
2023-05-11T07:45:09.787Z,99.99
2023-05-11T07:46:09.847Z,99.99
2023-05-11T07:47:09.795Z,99.99
2023-05-11T07:48:09.825Z,99.99
2023-05-11T07:49:17.020Z,99.99
2023-05-11T07:50:09.748Z,99.99
2023-05-11T07:51:09.751Z,99.99
2023-05-11T07:52:09.699Z,99.99
2023-05-11T07:53:09.718Z,99.99
2023-05-11T07:54:09.759Z,99.99
2023-05-11T07:55:09.683Z,99.99
2023-05-11T07:56:09.655Z,99.99
2023-05-11T07:57:09.629Z,99.99
2023-05-11T07:58:09.666Z,99.99
2023-05-11T07:59:09.630Z,99.99
2023-05-11T08:00:10.961Z,99.99
2023-05-11T08:01:09.642Z,99.99
2023-05-11T08:02:11.533Z,99.99
2023-05-11T08:03:09.611Z,99.99
2023-05-11T08:04:09.581Z,99.99
2023-05-11T08:05:09.581Z,99.99
2023-05-11T08:06:09.595Z,99.99
2023-05-11T08:07:09.575Z,99.99
2023-05-11T08:08:09.614Z,99.99
2023-05-11T08:09:09.508Z,99.99
2023-05-11T08:10:09.483Z,99.99
2023-05-11T08:11:09.565Z,99.99
2023-05-11T08:12:09.471Z,99.99
2023-05-11T08:13:09.467Z,99.99
2023-05-11T08:14:09.502Z,99.99
2023-05-11T08:15:09.449Z,99.99
2023-05-11T08:16:09.510Z,99.99
2023-05-11T08:17:09.417Z,99.99
2023-05-11T08:18:09.441Z,99.99
2023-05-11T08:19:09.496Z,99.99
2023-05-11T08:20:09.400Z,99.99
2023-05-11T08:21:09.405Z,99.99
2023-05-11T08:22:09.385Z,99.99
2023-05-11T08:23:09.337Z,99.99
2023-05-11T08:24:09.332Z,99.99
2023-05-11T08:25:09.352Z,99.99
2023-05-11T08:26:09.533Z,99.99
2023-05-11T08:27:09.311Z,99.99
2023-05-11T08:28:09.370Z,99.99
2023-05-11T08:29:09.459Z,99.99
2023-05-11T08:30:11.503Z,99.99
2023-05-11T08:31:09.266Z,99.99
2023-05-11T08:32:09.304Z,99.99
2023-05-11T08:33:25.846Z,99.99
2023-05-11T08:34:18.592Z,99.99
2023-05-11T08:35:09.439Z,99.99
2023-05-11T08:36:09.208Z,99.99
2023-05-11T08:37:09.201Z,99.99
2023-05-11T08:38:09.204Z,99.99
2023-05-11T08:39:09.291Z,99.99
2023-05-11T08:40:09.215Z,99.99
2023-05-11T08:41:09.245Z,99.99
2023-05-11T08:42:09.491Z,99.99
2023-05-11T08:43:09.124Z,99.99
2023-05-11T08:44:09.167Z,99.99
2023-05-11T08:45:09.078Z,99.99
2023-05-11T08:46:09.236Z,99.99
2023-05-11T08:47:21.026Z,99.99
2023-05-11T08:48:10.115Z,99.99
2023-05-11T08:49:09.123Z,99.99
2023-05-11T08:50:10.041Z,99.99
2023-05-11T08:51:09.409Z,99.99
2023-05-11T08:52:09.044Z,99.99
2023-05-11T08:53:09.026Z,99.99
2023-05-11T08:54:09.011Z,99.99
2023-05-11T08:55:09.079Z,99.99
2023-05-11T08:56:09.011Z,99.99
2023-05-11T08:57:09.008Z,99.99
2023-05-11T08:58:08.994Z,99.99
2023-05-11T08:59:08.961Z,99.99
2023-05-11T09:00:08.951Z,99.99
2023-05-11T09:01:09.081Z,99.99
2023-05-11T09:02:09.009Z,99.99
2023-05-11T09:03:08.943Z,99.99
2023-05-11T09:04:08.879Z,99.99
2023-05-11T09:05:08.917Z,99.99
2023-05-11T09:06:08.894Z,99.99
2023-05-11T09:07:08.853Z,99.99
2023-05-11T09:08:08.893Z,99.99
2023-05-11T09:09:08.837Z,99.99
2023-05-11T09:10:09.239Z,99.93
2023-05-11T09:11:08.803Z,99.42
2023-05-11T09:12:08.829Z,99.52
2023-05-11T09:13:08.857Z,98.66
2023-05-11T09:14:08.760Z,98.36
2023-05-11T09:15:08.842Z,97.91
2023-05-11T09:16:16.908Z,96.89
2023-05-11T09:17:08.790Z,96.79
2023-05-11T09:18:08.800Z,94.45
2023-05-11T09:19:08.857Z,94.25
2023-05-11T09:20:08.701Z,94.66
2023-05-11T09:21:08.691Z,94.76
2023-05-11T09:22:08.737Z,94.56
2023-05-11T09:23:08.686Z,94.96
2023-05-11T09:24:08.681Z,95.92
2023-05-11T09:25:08.748Z,97.55
2023-05-11T09:26:08.830Z,98.21
2023-05-11T09:27:08.707Z,98.41
2023-05-11T09:28:08.687Z,98.32
2023-05-11T09:29:08.662Z,98.11
2023-05-11T09:30:08.921Z,97.75
2023-05-11T09:31:08.593Z,97.44
2023-05-11T09:32:08.592Z,95.92
2023-05-11T09:33:08.675Z,94.40
2023-05-11T09:34:08.577Z,95.72
2023-05-11T09:35:08.686Z,96.98
2023-05-11T09:36:08.564Z,95.86
2023-05-11T09:37:09.141Z,96.98
2023-05-11T09:38:08.543Z,96.01
2023-05-11T09:39:14.845Z,97.60
2023-05-11T09:40:26.348Z,98.46
2023-05-11T09:41:08.508Z,99.42
2023-05-11T09:42:08.477Z,99.52
2023-05-11T09:43:08.536Z,99.99
2023-05-11T09:44:08.543Z,99.99
2023-05-11T09:45:08.524Z,99.99
2023-05-11T09:46:09.030Z,99.99
2023-05-11T09:47:08.450Z,99.99
2023-05-11T09:48:08.546Z,99.99
2023-05-11T09:49:08.419Z,99.99
2023-05-11T09:50:08.570Z,99.99
2023-05-11T09:51:08.512Z,99.99
2023-05-11T09:52:08.448Z,99.99
2023-05-11T09:53:08.490Z,99.99
2023-05-11T09:54:08.406Z,99.99
2023-05-11T09:55:08.512Z,99.99
2023-05-11T09:56:08.344Z,99.77
2023-05-11T09:57:08.329Z,98.45
2023-05-11T09:58:08.331Z,98.75
2023-05-11T09:59:08.315Z,99.99
2023-05-11T10:00:08.366Z,99.67
2023-05-11T10:01:08.331Z,98.71
2023-05-11T10:02:08.339Z,98.00
2023-05-11T10:03:08.496Z,99.93
2023-05-11T10:04:22.337Z,98.66
2023-05-11T10:05:08.342Z,98.56
2023-05-11T10:06:08.447Z,99.53
2023-05-11T10:07:08.227Z,98.21
2023-05-11T10:08:08.343Z,98.36
2023-05-11T10:09:08.317Z,99.84
2023-05-11T10:10:08.271Z,99.13
2023-05-11T10:11:08.314Z,97.44
2023-05-11T10:12:08.209Z,97.75
2023-05-11T10:13:08.187Z,98.16
2023-05-11T10:14:08.182Z,98.77
2023-05-11T10:15:08.170Z,98.52
2023-05-11T10:16:08.202Z,98.30
2023-05-11T10:17:08.160Z,98.81
2023-05-11T10:18:08.182Z,98.81
2023-05-11T10:19:08.275Z,98.81
2023-05-11T10:20:08.082Z,97.53
2023-05-11T10:21:08.081Z,98.20
2023-05-11T10:22:08.111Z,98.00
2023-05-11T10:23:08.060Z,97.80
2023-05-11T10:24:08.037Z,98.66
2023-05-11T10:25:08.062Z,98.71
2023-05-11T10:26:08.010Z,97.96
2023-05-11T10:27:08.108Z,97.08
2023-05-11T10:28:07.993Z,97.69
2023-05-11T10:29:07.989Z,98.16
2023-05-11T10:30:08.034Z,97.50
2023-05-11T10:31:07.983Z,98.32
2023-05-11T10:32:08.030Z,99.13
2023-05-11T10:33:08.022Z,98.72
2023-05-11T10:34:07.957Z,98.72
2023-05-11T10:35:07.964Z,95.98
2023-05-11T10:36:07.908Z,95.17
2023-05-11T10:37:07.886Z,94.51
2023-05-11T10:38:07.999Z,94.10
2023-05-11T10:39:07.929Z,94.31
2023-05-11T10:40:07.885Z,93.29
2023-05-11T10:41:08.620Z,93.76
2023-05-11T10:42:07.840Z,93.35
2023-05-11T10:43:07.832Z,93.84
2023-05-11T10:44:08.009Z,94.10
2023-05-11T10:45:07.820Z,94.87
2023-05-11T10:46:07.845Z,94.37
2023-05-11T10:47:07.838Z,93.00
2023-05-11T10:48:07.883Z,92.40
2023-05-11T10:49:07.832Z,92.45
2023-05-11T10:50:07.804Z,92.05
2023-05-11T10:51:07.827Z,92.76
2023-05-11T10:52:07.768Z,92.41
2023-05-11T10:53:07.806Z,91.80
2023-05-11T10:54:07.709Z,91.60
2023-05-11T10:55:07.795Z,91.86
2023-05-11T10:56:07.695Z,91.46
2023-05-11T10:57:07.716Z,90.54
2023-05-11T10:58:07.685Z,90.70
2023-05-11T10:59:07.678Z,90.30
2023-05-11T11:00:07.759Z,89.89
2023-05-11T11:01:07.740Z,88.88
2023-05-11T11:02:07.653Z,89.02
2023-05-11T11:03:07.737Z,89.23
2023-05-11T11:04:07.635Z,89.02
2023-05-11T11:05:07.722Z,88.92
2023-05-11T11:06:07.678Z,89.12
2023-05-11T11:07:07.564Z,88.62
2023-05-11T11:08:07.589Z,88.42
2023-05-11T11:09:07.636Z,89.83
2023-05-11T11:10:07.680Z,89.79
2023-05-11T11:11:07.581Z,89.89
2023-05-11T11:12:07.521Z,87.60
2023-05-11T11:13:07.531Z,90.30
2023-05-11T11:14:07.506Z,90.03
2023-05-11T11:15:07.511Z,90.64
2023-05-11T11:16:07.483Z,90.91
2023-05-11T11:17:07.586Z,90.20
2023-05-11T11:18:07.508Z,90.44
2023-05-11T11:19:07.595Z,90.60
2023-05-11T11:20:07.503Z,90.80
2023-05-11T11:21:07.464Z,86.76
2023-05-11T11:22:07.448Z,87.26
2023-05-11T11:23:07.427Z,89.04
2023-05-11T11:24:07.475Z,89.04
2023-05-11T11:25:07.441Z,89.65
2023-05-11T11:26:07.465Z,91.37
2023-05-11T11:27:07.498Z,90.52
2023-05-11T11:28:07.436Z,89.85
2023-05-11T11:29:07.472Z,90.05
2023-05-11T11:30:07.345Z,90.50
2023-05-11T11:31:07.416Z,90.70
2023-05-11T11:32:07.390Z,90.44
2023-05-11T11:33:07.390Z,90.84
2023-05-11T11:34:07.337Z,91.55
2023-05-11T11:35:07.285Z,91.51
2023-05-11T11:36:07.258Z,89.23
2023-05-11T11:37:07.324Z,88.31
2023-05-11T11:38:07.297Z,89.08
2023-05-11T11:39:07.334Z,91.00
2023-05-11T11:40:14.714Z,89.28
2023-05-11T11:41:09.298Z,90.60
2023-05-11T11:42:07.330Z,90.96
2023-05-11T11:43:07.235Z,91.53
2023-05-11T11:44:07.212Z,91.42
2023-05-11T11:45:07.212Z,90.31
2023-05-11T11:46:07.178Z,89.70
2023-05-11T11:47:07.196Z,89.56
2023-05-11T11:48:07.309Z,89.97
2023-05-11T11:49:07.134Z,88.35
2023-05-11T11:50:07.116Z,88.59
2023-05-11T11:51:07.153Z,88.59
2023-05-11T11:52:07.089Z,88.39
2023-05-11T11:53:07.062Z,86.98
2023-05-11T11:54:07.121Z,86.07
2023-05-11T11:55:07.066Z,86.61
2023-05-11T11:56:07.050Z,88.27
2023-05-11T11:57:07.030Z,88.29
2023-05-11T11:58:07.029Z,87.79
2023-05-11T11:59:07.025Z,88.53
2023-05-11T12:00:06.998Z,89.75
2023-05-11T12:01:07.110Z,89.34
2023-05-11T12:02:06.964Z,90.30
2023-05-11T12:03:06.994Z,90.60
2023-05-11T12:04:07.090Z,93.33
2023-05-11T12:05:07.033Z,93.48
2023-05-11T12:06:06.933Z,94.09
2023-05-11T12:07:06.910Z,94.09
2023-05-11T12:08:06.924Z,94.64
2023-05-11T12:09:06.945Z,94.43
2023-05-11T12:10:06.951Z,95.59
2023-05-11T12:11:06.876Z,96.20
2023-05-11T12:12:06.868Z,95.70
2023-05-11T12:13:06.863Z,94.27
2023-05-11T12:14:07.871Z,94.27
2023-05-11T12:15:06.831Z,94.27
2023-05-11T12:16:06.984Z,92.71
2023-05-11T12:17:06.812Z,93.45
2023-05-11T12:18:06.886Z,94.57
2023-05-11T12:19:06.894Z,94.42
2023-05-11T12:20:06.785Z,94.12
2023-05-11T12:21:06.783Z,93.30
2023-05-11T12:22:06.778Z,93.21
2023-05-11T12:23:06.733Z,92.45
2023-05-11T12:24:06.793Z,92.45
2023-05-11T12:25:07.008Z,93.37
2023-05-11T12:26:06.691Z,93.62
2023-05-11T12:27:06.763Z,92.91
2023-05-11T12:28:06.673Z,93.22
2023-05-11T12:29:06.681Z,92.41
2023-05-11T12:30:06.693Z,91.50
2023-05-11T12:31:06.920Z,93.32
2023-05-11T12:32:06.681Z,94.29
2023-05-11T12:33:06.722Z,93.07
2023-05-11T12:34:06.637Z,92.06
2023-05-11T12:35:06.654Z,92.47
2023-05-11T12:36:06.611Z,92.06
2023-05-11T12:37:06.586Z,92.87
2023-05-11T12:38:06.594Z,93.13
2023-05-11T12:39:06.633Z,92.42
2023-05-11T12:40:06.859Z,92.22
2023-05-11T12:41:06.572Z,92.12
2023-05-11T12:42:06.566Z,91.86
2023-05-11T12:43:06.536Z,92.26
2023-05-11T12:44:06.526Z,92.57
2023-05-11T12:45:06.544Z,91.75
2023-05-11T12:46:06.521Z,92.06
2023-05-11T12:47:06.524Z,91.92
2023-05-11T12:48:06.510Z,92.32
2023-05-11T12:49:06.462Z,92.52
2023-05-11T12:50:06.500Z,90.09
2023-05-11T12:51:06.505Z,91.86
2023-05-11T12:52:06.450Z,91.96